Time;durP1;ratioP1;P1;durP2;ratioP2;P2;SDS_P1;SDS_P2;PMS_P1;PMS_P2;Temp;Humidity;BMP_temperature;BMP_pressure;BME280_temperature;BME280_humidity;BME280_pressure;Samples;Min_cycle;Max_cycle;Signal;HPM_P1;HPM_P2
2022/10/06 00:01:09;;;;;;;2.70;1.67;;;16.80;99.90;;;;;;5033167;28;20249;-55
2022/10/06 00:03:38;;;;;;;2.00;1.70;;;16.80;99.90;;;;;;5032837;28;20210;-55
2022/10/06 00:06:06;;;;;;;2.03;1.60;;;16.70;99.90;;;;;;5033753;28;20560;-55
2022/10/06 00:08:35;;;;;;;3.47;1.98;;;16.70;99.90;;;;;;5033121;28;20237;-55
2022/10/06 00:11:03;;;;;;;2.67;1.95;;;16.60;99.90;;;;;;5033025;28;20257;-55
2022/10/06 00:13:31;;;;;;;3.55;2.10;;;16.70;99.90;;;;;;5033336;28;20222;-55
2022/10/06 00:15:58;;;;;;;3.70;1.95;;;16.70;99.90;;;;;;5032932;28;20265;-55
2022/10/06 00:18:26;;;;;;;2.05;1.70;;;16.60;99.90;;;;;;5033206;28;20293;-55
2022/10/06 00:20:59;;;;;;;2.65;1.98;;;16.60;99.90;;;;;;5032671;28;20230;-56
2022/10/06 00:23:28;;;;;;;5.43;2.00;;;16.50;99.90;;;;;;5032940;28;20206;-55
2022/10/06 00:25:55;;;;;;;6.13;1.98;;;16.40;99.90;;;;;;5032422;28;20481;-55
2022/10/06 00:28:22;;;;;;;2.75;2.10;;;16.20;99.90;;;;;;5032726;28;20685;-55
2022/10/06 00:30:52;;;;;;;4.35;2.13;;;16.10;99.90;;;;;;5032126;28;20234;-57
2022/10/06 00:33:19;;;;;;;5.07;2.17;;;16.00;99.90;;;;;;5032844;28;20252;-55
2022/10/06 00:35:47;;;;;;;5.60;2.10;;;16.00;99.90;;;;;;5032328;28;20336;-55
2022/10/06 00:38:17;;;;;;;3.50;2.40;;;15.90;99.90;;;;;;5033115;28;20293;-56
2022/10/06 00:40:45;;;;;;;3.38;2.40;;;15.80;99.90;;;;;;5032246;28;20230;-55
2022/10/06 00:43:40;;;;;;;4.97;2.50;;;15.70;99.90;;;;;;5032735;28;20678;-56
2022/10/06 00:46:09;;;;;;;2.67;2.10;;;15.60;99.90;;;;;;5032482;28;20206;-55
2022/10/06 00:48:37;;;;;;;4.60;2.40;;;15.50;99.90;;;;;;5032731;28;20210;-55
2022/10/06 00:51:04;;;;;;;3.60;2.42;;;15.40;99.90;;;;;;5031704;28;20321;-55
2022/10/06 00:53:33;;;;;;;3.93;2.30;;;15.30;99.90;;;;;;5033338;28;20250;-55
2022/10/06 00:56:00;;;;;;;5.33;2.53;;;15.20;99.90;;;;;;5035461;28;20222;-56
2022/10/06 00:58:27;;;;;;;6.90;2.67;;;15.00;99.90;;;;;;5035930;28;20257;-55
2022/10/06 01:00:56;;;;;;;4.57;2.90;;;14.80;99.90;;;;;;5034934;28;20254;-56
2022/10/06 01:03:29;;;;;;;4.50;2.57;;;14.70;99.90;;;;;;5035555;28;20213;-56
2022/10/06 01:05:57;;;;;;;3.50;2.57;;;14.60;99.90;;;;;;5034997;28;20214;-57
2022/10/06 01:08:26;;;;;;;6.70;2.80;;;14.60;99.90;;;;;;5035229;28;20207;-56
2022/10/06 01:10:55;;;;;;;4.37;2.40;;;14.60;99.90;;;;;;5034811;28;20226;-56
2022/10/06 01:13:23;;;;;;;4.30;2.93;;;14.50;99.90;;;;;;5035311;28;20211;-56
2022/10/06 01:15:54;;;;;;;3.00;2.70;;;14.40;99.90;;;;;;5034674;28;20218;-56
2022/10/06 01:18:25;;;;;;;4.00;2.70;;;14.30;99.90;;;;;;5034983;28;20264;-56
2022/10/06 01:20:59;;;;;;;9.80;2.70;;;14.30;99.90;;;;;;5034524;28;20274;-56
2022/10/06 01:23:30;;;;;;;4.17;2.70;;;14.30;99.90;;;;;;5034868;28;20352;-57
2022/10/06 01:25:58;;;;;;;4.90;2.60;;;14.30;99.90;;;;;;5035324;28;20692;-56
2022/10/06 01:28:25;;;;;;;7.13;3.20;;;14.30;99.90;;;;;;5034697;28;20746;-57
2022/10/06 01:30:55;;;;;;;4.07;3.33;;;14.20;99.90;;;;;;5048132;22;20234;-54
2022/10/06 01:33:23;;;;;;;5.43;3.40;;;14.20;99.90;;;;;;5033942;28;20583;-54
2022/10/06 01:35:51;;;;;;;7.77;3.30;;;14.20;99.90;;;;;;5033882;28;20229;-54
2022/10/06 01:38:20;;;;;;;5.57;3.03;;;14.10;99.90;;;;;;5034120;28;20745;-54
2022/10/06 01:40:51;;;;;;;3.77;2.93;;;14.10;99.90;;;;;;5033348;28;20222;-55
2022/10/06 01:43:17;;;;;;;12.30;3.70;;;14.00;99.90;;;;;;5034081;28;20216;-55
2022/10/06 01:45:44;;;;;;;5.20;2.83;;;14.00;99.90;;;;;;5033745;28;20202;-54
2022/10/06 01:48:11;;;;;;;5.20;3.13;;;13.90;99.90;;;;;;5034066;28;20210;-55
2022/10/06 01:50:40;;;;;;;6.10;3.20;;;13.90;99.90;;;;;;5033796;28;20261;-57
2022/10/06 01:53:07;;;;;;;8.70;2.83;;;13.70;99.90;;;;;;5033806;28;20237;-56
2022/10/06 01:55:34;;;;;;;4.97;3.40;;;13.50;99.90;;;;;;5033716;28;20249;-55
2022/10/06 01:58:03;;;;;;;6.13;3.40;;;13.40;99.90;;;;;;5033626;28;20240;-54
2022/10/06 02:00:29;;;;;;;4.60;3.03;;;13.30;99.90;;;;;;5033157;28;20230;-54
2022/10/06 02:02:57;;;;;;;4.93;3.30;;;13.30;99.90;;;;;;5033770;28;20229;-55
2022/10/06 02:05:23;;;;;;;7.07;3.37;;;13.20;99.90;;;;;;5033130;28;20202;-55
2022/10/06 02:07:50;;;;;;;6.97;3.30;;;13.20;99.90;;;;;;5033501;28;20591;-55
2022/10/06 02:10:17;;;;;;;6.07;3.30;;;13.20;99.90;;;;;;5033350;28;20230;-54
2022/10/06 02:12:44;;;;;;;4.40;3.27;;;13.10;99.90;;;;;;5032746;28;20203;-55
2022/10/06 02:15:12;;;;;;;7.53;3.50;;;13.10;99.90;;;;;;5033433;28;20598;-54
2022/10/06 02:17:39;;;;;;;6.27;3.33;;;13.10;99.90;;;;;;5033165;28;20573;-54
2022/10/06 02:20:06;;;;;;;4.53;3.30;;;13.20;99.90;;;;;;5033264;28;20670;-54
2022/10/06 02:22:38;;;;;;;7.23;3.37;;;13.20;99.90;;;;;;5032577;28;20284;-54
2022/10/06 02:25:05;;;;;;;5.23;3.43;;;13.20;99.90;;;;;;5033138;28;20252;-54
2022/10/06 02:27:32;;;;;;;4.83;3.07;;;13.20;99.90;;;;;;5032929;28;20584;-55
2022/10/06 02:29:59;;;;;;;8.40;3.60;;;13.30;99.90;;;;;;5032997;28;20613;-54
2022/10/06 02:32:34;;;;;;;4.47;3.00;;;13.20;99.90;;;;;;5032406;28;20209;-54
2022/10/06 02:35:02;;;;;;;3.93;3.03;;;13.20;99.90;;;;;;5032931;28;20586;-55
2022/10/06 02:37:29;;;;;;;4.43;3.27;;;13.20;99.90;;;;;;5032857;28;20237;-54
2022/10/06 02:39:56;;;;;;;6.53;3.40;;;13.20;99.90;;;;;;5033077;28;20233;-54
2022/10/06 02:42:22;;;;;;;6.53;3.10;;;13.20;99.90;;;;;;5032155;28;20211;-55
2022/10/06 02:44:51;;;;;;;5.77;4.00;;;13.20;99.90;;;;;;5032926;28;20214;-54
2022/10/06 02:47:18;;;;;;;5.20;4.23;;;13.10;99.90;;;;;;5032823;28;20241;-54
2022/10/06 02:49:46;;;;;;;9.93;5.20;;;13.10;99.90;;;;;;5032597;28;20222;-54
2022/10/06 02:52:14;;;;;;;7.13;4.40;;;13.10;99.90;;;;;;5031951;28;20218;-54
2022/10/06 02:54:41;;;;;;;6.63;3.40;;;13.20;99.90;;;;;;5032836;28;20210;-54
2022/10/06 02:57:07;;;;;;;3.00;2.40;;;13.20;99.90;;;;;;5032634;28;20233;-54
2022/10/06 02:59:34;;;;;;;6.13;3.00;;;13.20;99.90;;;;;;5032508;28;20230;-54
2022/10/06 03:02:01;;;;;;;5.10;2.97;;;13.20;99.90;;;;;;5031998;28;20658;-55
2022/10/06 03:04:28;;;;;;;5.20;2.70;;;13.10;99.90;;;;;;5032303;28;20202;-55
2022/10/06 03:06:56;;;;;;;5.47;2.80;;;13.10;99.90;;;;;;5032523;28;20211;-54
2022/10/06 03:09:23;;;;;;;4.17;2.00;;;13.10;99.90;;;;;;5032515;28;20217;-55
2022/10/06 03:11:49;;;;;;;8.77;2.27;;;13.20;99.90;;;;;;5032285;28;20210;-55
2022/10/06 03:14:16;;;;;;;3.53;2.47;;;13.20;99.90;;;;;;5032249;28;20581;-54
2022/10/06 03:16:43;;;;;;;6.67;2.60;;;13.20;99.90;;;;;;5031416;28;20226;-56
2022/10/06 03:19:11;;;;;;;5.13;2.30;;;13.40;99.90;;;;;;5032073;28;20206;-54
2022/10/06 03:21:40;;;;;;;3.00;2.00;;;13.50;99.90;;;;;;5031492;28;20653;-54
2022/10/06 03:24:08;;;;;;;4.50;2.70;;;13.70;99.90;;;;;;5032359;28;20205;-54
2022/10/06 03:26:37;;;;;;;5.30;2.70;;;13.80;99.90;;;;;;5032159;28;20650;-56
2022/10/06 03:29:04;;;;;;;3.57;2.90;;;13.90;99.90;;;;;;5032102;28;20214;-55
2022/10/06 03:31:31;;;;;;;3.80;3.30;;;13.90;99.90;;;;;;5031483;28;20221;-56
2022/10/06 03:33:58;;;;;;;4.60;3.43;;;14.00;99.90;;;;;;5031906;28;20210;-55
2022/10/06 03:36:26;;;;;;;4.43;3.50;;;14.10;99.90;;;;;;5031999;28;20230;-55
2022/10/06 03:38:53;;;;;;;3.80;3.00;;;14.20;99.90;;;;;;5032120;28;20214;-55
2022/10/06 03:41:23;;;;;;;5.10;3.40;;;14.30;99.90;;;;;;5031140;28;20226;-55
2022/10/06 03:43:51;;;;;;;7.53;3.93;;;14.30;99.90;;;;;;5031806;28;20214;-56
2022/10/06 03:46:21;;;;;;;6.30;3.20;;;14.30;99.90;;;;;;5031987;28;20225;-55
2022/10/06 03:48:49;;;;;;;5.63;3.40;;;14.40;99.90;;;;;;5031778;28;20210;-54
2022/10/06 03:51:18;;;;;;;6.20;3.47;;;14.50;99.90;;;;;;5031111;28;20709;-54
2022/10/06 03:53:46;;;;;;;4.73;3.43;;;14.60;99.90;;;;;;5031910;28;20214;-55
2022/10/06 03:56:15;;;;;;;3.00;2.60;;;14.60;99.90;;;;;;5031739;28;20242;-55
2022/10/06 03:58:45;;;;;;;9.33;3.00;;;14.50;99.90;;;;;;5031802;28;20210;-56
2022/10/06 04:01:14;;;;;;;6.93;4.10;;;14.50;99.90;;;;;;5030970;28;20714;-54
2022/10/06 04:03:41;;;;;;;4.87;3.37;;;14.60;99.90;;;;;;5031915;28;20206;-54
2022/10/06 04:06:12;;;;;;;6.23;3.80;;;14.70;99.90;;;;;;5031962;28;20337;-56
2022/10/06 04:08:40;;;;;;;6.27;3.97;;;14.80;99.90;;;;;;5031468;28;20217;-55
2022/10/06 04:11:09;;;;;;;5.70;4.83;;;14.90;99.90;;;;;;5031138;28;20230;-55
2022/10/06 04:13:36;;;;;;;8.90;5.30;;;15.00;99.90;;;;;;5031495;28;20564;-55
2022/10/06 04:16:12;;;;;;;6.27;4.37;;;15.10;99.90;;;;;;5031611;28;20226;-55
2022/10/06 04:18:39;;;;;;;6.17;4.17;;;15.20;99.90;;;;;;5031783;28;20206;-57
2022/10/06 04:21:06;;;;;;;7.77;4.87;;;15.20;99.90;;;;;;5031092;28;20574;-55
2022/10/06 04:23:35;;;;;;;4.73;3.53;;;15.30;99.90;;;;;;5031495;28;20210;-56
2022/10/06 04:26:05;;;;;;;6.87;3.50;;;15.30;99.90;;;;;;5031360;28;20293;-55
2022/10/06 04:28:32;;;;;;;5.40;3.63;;;15.40;99.90;;;;;;5034968;28;20209;-56
2022/10/06 04:31:00;;;;;;;5.17;3.63;;;15.50;99.90;;;;;;5034542;28;20596;-56
2022/10/06 04:33:33;;;;;;;7.43;3.33;;;15.50;99.90;;;;;;5035325;28;20225;-56
2022/10/06 04:36:02;;;;;;;6.10;3.50;;;15.40;99.90;;;;;;5035196;28;20226;-57
2022/10/06 04:38:31;;;;;;;5.20;3.40;;;15.40;99.90;;;;;;5035227;28;20259;-57
2022/10/06 04:41:04;;;;;;;6.50;3.30;;;15.50;99.90;;;;;;5034586;28;20240;-57
2022/10/06 04:43:30;;;;;;;6.40;2.90;;;15.50;99.90;;;;;;5035385;28;20206;-55
2022/10/06 04:45:58;;;;;;;4.97;3.67;;;15.60;99.90;;;;;;5034827;28;20682;-57
2022/10/06 04:48:25;;;;;;;6.20;3.50;;;15.60;99.90;;;;;;5034796;28;20300;-55
2022/10/06 04:50:58;;;;;;;6.77;3.90;;;15.60;99.90;;;;;;5034032;28;20226;-55
2022/10/06 04:53:25;;;;;;;6.27;4.10;;;15.70;99.90;;;;;;5035067;28;20207;-54
2022/10/06 04:56:03;;;;;;;8.60;4.30;;;15.80;99.90;;;;;;5035113;28;20221;-55
2022/10/06 04:58:33;;;;;;;5.83;4.37;;;15.80;99.90;;;;;;5035134;28;20282;-57
2022/10/06 05:01:00;;;;;;;5.73;4.20;;;16.00;99.90;;;;;;5033951;28;20222;-55
2022/10/06 05:03:27;;;;;;;7.60;3.17;;;16.00;99.90;;;;;;5034515;28;20206;-56
2022/10/06 05:06:03;;;;;;;6.90;3.30;;;16.10;99.90;;;;;;5034697;28;20293;-55
2022/10/06 05:08:30;;;;;;;7.20;3.00;;;16.20;99.90;;;;;;5034454;28;20586;-56
2022/10/06 05:11:00;;;;;;;7.47;4.80;;;16.30;99.90;;;;;;5034323;28;20614;-55
2022/10/06 05:13:26;;;;;;;7.68;4.10;;;16.40;99.90;;;;;;5034251;28;20251;-56
2022/10/06 05:15:58;;;;;;;6.80;3.67;;;16.50;99.90;;;;;;5034062;28;20215;-56
2022/10/06 05:18:25;;;;;;;7.72;4.55;;;16.60;99.90;;;;;;5034481;28;20214;-56
2022/10/06 05:20:56;;;;;;;4.60;3.20;;;16.70;99.90;;;;;;5033883;28;20226;-55
2022/10/06 05:23:25;;;;;;;6.55;3.22;;;16.70;99.90;;;;;;5034456;28;20297;-56
2022/10/06 05:25:52;;;;;;;7.45;3.83;;;16.70;99.90;;;;;;5034247;28;20300;-55
2022/10/06 05:28:19;;;;;;;9.55;3.90;;;16.70;99.90;;;;;;5034217;28;20674;-56
2022/10/06 05:30:55;;;;;;;8.45;3.72;;;16.70;99.90;;;;;;5033788;28;20241;-56
2022/10/06 05:33:22;;;;;;;8.98;3.75;;;16.70;99.90;;;;;;5034280;28;20248;-55
2022/10/06 05:35:53;;;;;;;9.50;4.37;;;16.80;99.90;;;;;;5034144;28;20215;-56
2022/10/06 05:38:19;;;;;;;9.57;3.75;;;16.90;99.90;;;;;;5033582;28;20305;-56
2022/10/06 05:40:48;;;;;;;6.72;3.30;;;16.90;99.90;;;;;;5033389;28;20222;-55
2022/10/06 05:43:15;;;;;;;8.77;3.47;;;17.00;99.90;;;;;;5034065;28;20218;-56
2022/10/06 05:45:53;;;;;;;11.00;3.55;;;17.10;99.90;;;;;;5033824;28;20210;-55
2022/10/06 05:48:20;;;;;;;6.38;3.47;;;17.10;99.90;;;;;;5033286;28;20206;-56
2022/10/06 05:50:46;;;;;;;7.20;3.80;;;17.20;99.90;;;;;;5033505;28;20313;-55
2022/10/06 05:53:13;;;;;;;6.75;3.50;;;17.30;99.90;;;;;;5033280;28;20250;-56
2022/10/06 05:55:40;;;;;;;10.80;3.75;;;17.30;99.90;;;;;;5033470;28;20666;-55
2022/10/06 05:58:08;;;;;;;7.05;3.22;;;17.40;99.90;;;;;;5033695;28;20226;-55
2022/10/06 06:00:35;;;;;;;10.13;3.35;;;17.40;99.90;;;;;;5033582;28;20309;-55
2022/10/06 06:03:02;;;;;;;10.02;3.10;;;17.50;99.90;;;;;;5033005;28;20301;-57
2022/10/06 06:05:28;;;;;;;8.15;2.88;;;17.50;99.90;;;;;;5033559;28;20320;-55
2022/10/06 06:07:55;;;;;;;9.90;3.13;;;17.50;99.90;;;;;;5033521;28;20233;-57
2022/10/06 06:10:22;;;;;;;7.07;3.08;;;17.60;99.90;;;;;;5033361;28;20230;-55
2022/10/06 06:12:48;;;;;;;5.15;2.95;;;17.60;99.90;;;;;;5032615;28;20210;-55
2022/10/06 06:18:03;;;;;;;5.95;3.33;;;17.70;99.90;;;;;;5033066;28;20225;-56
2022/10/06 06:20:30;;;;;;;5.25;2.70;;;17.80;99.90;;;;;;5032953;28;20226;-56
2022/10/06 06:22:57;;;;;;;5.97;2.58;;;17.80;99.90;;;;;;5032577;28;20213;-55
2022/10/06 06:25:23;;;;;;;4.68;2.40;;;17.80;99.90;;;;;;5033239;28;20214;-56
2022/10/06 06:27:50;;;;;;;4.80;2.65;;;17.90;99.90;;;;;;5033098;28;20202;-55
2022/10/06 06:30:18;;;;;;;8.40;2.88;;;17.90;99.90;;;;;;5032642;28;20269;-56
2022/10/06 06:32:45;;;;;;;5.28;2.75;;;18.00;99.90;;;;;;5032345;28;20221;-56
2022/10/06 06:35:12;;;;;;;8.40;3.00;;;18.10;99.90;;;;;;5032878;28;20293;-57
2022/10/06 06:37:38;;;;;;;8.38;3.58;;;18.10;99.90;;;;;;5033071;28;20237;-56
2022/10/06 06:40:06;;;;;;;6.97;3.00;;;18.10;99.90;;;;;;5032955;28;20232;-55
2022/10/06 06:42:33;;;;;;;6.40;2.97;;;18.20;99.90;;;;;;5032237;28;20233;-57
2022/10/06 06:44:59;;;;;;;7.45;2.88;;;18.20;99.90;;;;;;5032632;28;20209;-54
2022/10/06 06:47:27;;;;;;;25.70;4.93;;;18.20;99.90;;;;;;5032670;28;20209;-56
2022/10/06 06:49:54;;;;;;;62.70;8.65;;;18.20;99.90;;;;;;5032362;28;20233;-55
2022/10/06 06:52:22;;;;;;;25.40;5.15;;;18.20;99.90;;;;;;5032297;28;20209;-55
2022/10/06 06:54:48;;;;;;;8.80;3.25;;;18.30;99.90;;;;;;5032606;28;20216;-57
2022/10/06 06:57:17;;;;;;;6.40;3.05;;;18.50;99.90;;;;;;5032423;28;20229;-55
2022/10/06 06:59:44;;;;;;;9.23;4.75;;;18.60;99.90;;;;;;5032421;28;20234;-56
2022/10/06 07:02:11;;;;;;;6.25;3.35;;;18.80;99.90;;;;;;5031734;28;20309;-55
2022/10/06 07:04:39;;;;;;;8.55;3.15;;;18.90;99.90;;;;;;5032624;28;20238;-54
2022/10/06 07:07:05;;;;;;;7.72;2.97;;;19.00;99.90;;;;;;5032520;28;20210;-55
2022/10/06 07:09:32;;;;;;;7.45;2.90;;;19.00;99.90;;;;;;5032345;28;20226;-55
2022/10/06 07:11:59;;;;;;;7.32;3.45;;;19.10;99.90;;;;;;5031499;28;20688;-56
2022/10/06 07:14:25;;;;;;;6.03;2.67;;;19.20;99.90;;;;;;5032124;28;20209;-56
2022/10/06 07:25:18;;;;;;;11.93;3.35;;;19.10;99.90;;;;;;5032092;28;20570;-56
2022/10/06 07:27:49;;;;;;;10.23;3.60;;;19.10;99.90;;;;;;5032199;28;20213;-55
2022/10/06 07:30:19;;;;;;;8.73;3.70;;;19.10;99.90;;;;;;5032562;28;20230;-56
2022/10/06 07:32:47;;;;;;;13.38;3.95;;;19.10;99.90;;;;;;5031515;28;20244;-57
2022/10/06 07:35:15;;;;;;;11.07;3.65;;;19.10;99.90;;;;;;5031985;28;20210;-56
2022/10/06 07:37:42;;;;;;;9.82;3.13;;;19.00;99.90;;;;;;5031815;28;20705;-56
2022/10/06 07:40:10;;;;;;;10.40;3.97;;;19.00;99.90;;;;;;5032105;28;20222;-56
2022/10/06 07:42:47;;;;;;;13.52;3.75;;;19.00;99.90;;;;;;5031411;28;20214;-55
2022/10/06 07:48:17;;;;;;;11.07;3.40;;;18.80;99.90;;;;;;4970779;28;20699;-56
2022/10/06 07:50:47;;;;;;;6.45;3.20;;;18.70;99.90;;;;;;4970555;28;20259;-56
2022/10/06 07:53:16;;;;;;;7.00;3.20;;;18.70;99.90;;;;;;4998452;28;20704;-54
2022/10/06 07:55:45;;;;;;;7.40;3.05;;;18.70;99.90;;;;;;5031690;28;20229;-54
2022/10/06 07:58:13;;;;;;;5.82;3.05;;;18.60;99.90;;;;;;5031787;28;20238;-54
2022/10/06 08:00:40;;;;;;;8.65;3.92;;;18.60;99.90;;;;;;5031557;28;20628;-54
2022/10/06 08:03:06;;;;;;;17.63;4.43;;;18.60;99.90;;;;;;5033811;28;20205;-55
2022/10/06 08:05:33;;;;;;;11.38;3.25;;;18.70;99.90;;;;;;5035889;28;20570;-54
2022/10/06 08:08:01;;;;;;;6.22;2.75;;;18.70;99.90;;;;;;5035828;28;20198;-54
2022/10/06 08:10:28;;;;;;;6.18;2.70;;;18.80;99.90;;;;;;5035772;28;20226;-53
2022/10/06 08:12:54;;;;;;;7.65;2.90;;;18.90;99.90;;;;;;5035009;28;20590;-55
2022/10/06 08:15:21;;;;;;;6.93;2.97;;;19.00;99.90;;;;;;5035455;28;20221;-54
2022/10/06 08:17:48;;;;;;;9.05;3.28;;;19.10;99.90;;;;;;5035740;28;20262;-54
2022/10/06 08:20:17;;;;;;;5.97;2.30;;;19.10;99.90;;;;;;5035455;28;20226;-54
2022/10/06 08:22:44;;;;;;;5.13;2.63;;;19.00;99.90;;;;;;5034941;28;20745;-54
2022/10/06 08:25:12;;;;;;;5.68;2.60;;;19.00;99.90;;;;;;5035579;28;20218;-56
2022/10/06 08:27:39;;;;;;;10.43;2.60;;;19.00;99.90;;;;;;5035272;28;20206;-56
2022/10/06 08:30:07;;;;;;;11.43;2.47;;;19.10;99.90;;;;;;5035145;28;20616;-54
2022/10/06 08:32:34;;;;;;;7.68;2.60;;;19.10;99.90;;;;;;5034580;28;20210;-54
2022/10/06 08:35:01;;;;;;;6.00;2.70;;;19.00;99.90;;;;;;5035091;28;20214;-56
2022/10/06 08:37:28;;;;;;;5.57;2.70;;;19.10;99.90;;;;;;5035169;28;20233;-54
2022/10/06 08:39:54;;;;;;;5.72;2.90;;;19.20;99.90;;;;;;5035118;28;20230;-54
2022/10/06 08:42:31;;;;;;;7.10;3.17;;;19.30;99.90;;;;;;5034338;28;20206;-54
2022/10/06 08:45:02;;;;;;;13.27;3.78;;;19.40;99.90;;;;;;5035225;28;20301;-54
2022/10/06 08:47:33;;;;;;;9.40;3.25;;;19.40;99.90;;;;;;5035044;28;20198;-54
2022/10/06 08:50:03;;;;;;;16.65;3.85;;;19.50;99.90;;;;;;5034996;28;20230;-54
2022/10/06 08:52:49;;;;;;;7.72;2.50;;;19.70;99.90;;;;;;5034238;28;20206;-54
2022/10/06 08:55:30;;;;;;;6.53;2.10;;;19.80;99.90;;;;;;5035037;28;20209;-54
2022/10/06 08:58:21;;;;;;;7.35;2.10;;;20.00;99.90;;;;;;5034900;28;20225;-53
2022/10/06 09:00:48;;;;;;;8.82;2.70;;;19.90;99.90;;;;;;5035118;28;20226;-54
2022/10/06 09:03:22;;;;;;;11.20;2.60;;;20.10;99.90;;;;;;5033913;28;20213;-53
2022/10/06 09:05:51;;;;;;;6.13;2.00;;;20.20;99.90;;;;;;5034873;28;20209;-54
2022/10/06 09:08:40;;;;;;;5.10;1.73;;;20.10;99.90;;;;;;5034602;28;20202;-54
2022/10/06 09:11:21;;;;;;;38.45;4.85;;;20.00;99.90;;;;;;5034237;28;20262;-54
2022/10/06 09:13:55;;;;;;;16.23;2.53;;;20.00;99.90;;;;;;5033704;28;20233;-55
2022/10/06 09:16:30;;;;;;;63.53;7.35;;;19.80;99.90;;;;;;5034627;28;20207;-54
2022/10/06 09:19:04;;;;;;;12.10;2.50;;;19.70;99.90;;;;;;5034566;28;20229;-54
2022/10/06 09:21:36;;;;;;;8.60;2.22;;;19.70;99.90;;;;;;5034696;28;20212;-54
2022/10/06 09:24:10;;;;;;;4.13;2.15;;;19.80;99.90;;;;;;5034327;28;20617;-54
2022/10/06 09:26:42;;;;;;;5.80;2.08;;;20.30;99.90;;;;;;5034641;28;20207;-54
2022/10/06 09:29:11;;;;;;;5.20;2.13;;;20.70;99.90;;;;;;5034431;28;20666;-54
2022/10/06 09:31:40;;;;;;;5.78;2.20;;;21.00;99.90;;;;;;5033691;28;20202;-56
2022/10/06 09:34:18;;;;;;;3.60;2.10;;;21.30;99.90;;;;;;5028205;28;20472;-58
2022/10/06 09:36:58;;;;;;;5.93;2.30;;;21.50;99.90;;;;;;5033018;28;20224;-58
2022/10/06 09:39:31;;;;;;;6.00;1.70;;;21.80;99.90;;;;;;5032595;28;20261;-65
2022/10/06 09:42:02;;;;;;;5.60;1.77;;;21.80;99.90;;;;;;5028254;28;20297;-64
2022/10/06 09:44:35;;;;;;;4.68;2.08;;;21.80;99.90;;;;;;5032108;28;20237;-63
2022/10/06 09:47:01;;;;;;;7.55;1.98;;;21.90;99.90;;;;;;5032500;28;20595;-63
2022/10/06 09:49:30;;;;;;;15.73;2.33;;;22.10;99.90;;;;;;5032749;28;20229;-63
2022/10/06 09:52:10;;;;;;;7.28;1.60;;;22.40;99.90;;;;;;5031918;28;20283;-63
2022/10/06 09:54:37;;;;;;;4.68;1.50;;;22.30;99.90;;;;;;5032521;28;20650;-61
2022/10/06 09:57:10;;;;;;;4.30;1.80;;;22.00;99.90;;;;;;5032606;28;20206;-61
2022/10/06 09:59:43;;;;;;;26.00;4.00;;;21.90;99.90;;;;;;5032612;28;20249;-61
2022/10/06 10:02:26;;;;;;;23.98;4.00;;;22.00;99.90;;;;;;5032003;28;20221;-59
2022/10/06 10:04:54;;;;;;;11.63;1.70;;;21.80;99.90;;;;;;5031622;28;20667;-62
2022/10/06 10:07:24;;;;;;;8.80;2.33;;;21.50;99.90;;;;;;5033194;28;20202;-61
2022/10/06 10:09:51;;;;;;;7.50;1.77;;;21.10;99.90;;;;;;5033201;28;20273;-59
2022/10/06 10:12:24;;;;;;;4.43;2.00;;;21.00;99.90;;;;;;5032747;28;20218;-61
2022/10/06 10:14:52;;;;;;;5.30;1.85;;;21.30;99.90;;;;;;5033438;28;20202;-60
2022/10/06 10:17:22;;;;;;;4.78;1.85;;;21.40;99.90;;;;;;5033156;28;20213;-59
2022/10/06 10:19:52;;;;;;;6.75;1.92;;;21.30;99.90;;;;;;5033014;28;20234;-60
2022/10/06 10:22:23;;;;;;;6.78;1.63;;;21.40;99.90;;;;;;5032501;28;20260;-58
2022/10/06 10:24:59;;;;;;;10.48;1.80;;;21.40;99.90;;;;;;5032935;28;20618;-60
2022/10/06 10:27:35;;;;;;;4.35;1.40;;;21.40;99.90;;;;;;5033067;28;20206;-59
2022/10/06 10:30:08;;;;;;;4.85;1.73;;;21.30;99.90;;;;;;5032931;28;20265;-60
2022/10/06 10:32:53;;;;;;;4.25;1.50;;;21.20;99.90;;;;;;5032358;28;20206;-58
2022/10/06 10:35:25;;;;;;;5.38;1.55;;;21.10;99.90;;;;;;5033217;28;20202;-60
2022/10/06 10:37:58;;;;;;;3.55;1.50;;;21.10;99.90;;;;;;5032870;28;20238;-58
2022/10/06 10:40:36;;;;;;;3.33;1.80;;;21.20;99.90;;;;;;5032845;28;20222;-59
2022/10/06 10:43:11;;;;;;;5.38;1.80;;;21.20;99.90;;;;;;5032148;28;20209;-60
2022/10/06 10:45:43;;;;;;;5.53;2.00;;;21.40;99.90;;;;;;5032909;28;20209;-59
2022/10/06 10:48:15;;;;;;;4.18;2.03;;;21.80;99.90;;;;;;5032546;28;20213;-60
2022/10/06 10:50:49;;;;;;;2.63;1.20;;;22.00;99.90;;;;;;5032665;28;20237;-59
2022/10/06 10:53:21;;;;;;;5.18;1.13;;;22.10;99.90;;;;;;5032323;28;20209;-61
2022/10/06 10:55:50;;;;;;;2.65;1.20;;;22.10;99.90;;;;;;5032780;28;20649;-60
2022/10/06 10:58:22;;;;;;;5.85;1.98;;;22.10;99.90;;;;;;5032792;28;20257;-59
2022/10/06 11:00:54;;;;;;;4.68;1.40;;;22.10;99.90;;;;;;5032736;28;20233;-60
2022/10/06 11:03:21;;;;;;;4.85;1.33;;;22.10;99.90;;;;;;5032170;28;20206;-60
2022/10/06 11:06:05;;;;;;;4.15;1.50;;;22.40;99.90;;;;;;5032849;28;20340;-60
2022/10/06 11:08:39;;;;;;;4.07;1.20;;;22.70;99.90;;;;;;5032768;28;20597;-60
2022/10/06 11:11:15;;;;;;;5.40;1.50;;;23.00;99.90;;;;;;5032683;28;20225;-59
2022/10/06 11:13:45;;;;;;;3.40;1.35;;;22.90;99.90;;;;;;5031880;28;20206;-60
2022/10/06 11:16:31;;;;;;;5.88;1.40;;;22.80;99.90;;;;;;5032296;28;20206;-59
2022/10/06 11:19:13;;;;;;;2.42;1.30;;;22.60;99.90;;;;;;5032351;28;20225;-59
2022/10/06 11:21:46;;;;;;;3.58;1.50;;;22.20;99.90;;;;;;5031825;28;20264;-59
2022/10/06 11:24:20;;;;;;;6.10;1.70;;;21.70;99.90;;;;;;5032398;28;20217;-59
2022/10/06 11:27:07;;;;;;;4.35;1.73;;;21.30;99.90;;;;;;5032118;28;20206;-60
2022/10/06 11:29:44;;;;;;;4.63;1.70;;;21.20;99.90;;;;;;5032491;28;20234;-59
2022/10/06 11:32:25;;;;;;;5.25;1.63;;;21.20;99.90;;;;;;5031948;28;20202;-59
2022/10/06 11:34:53;;;;;;;5.85;1.65;;;21.40;99.90;;;;;;5032445;28;20218;-60
2022/10/06 11:37:32;;;;;;;7.25;1.65;;;21.60;99.90;;;;;;5031545;28;20206;-61
2022/10/06 11:40:13;;;;;;;4.65;1.60;;;21.90;99.90;;;;;;5032110;28;20234;-60
2022/10/06 11:42:46;;;;;;;5.43;1.50;;;22.10;99.90;;;;;;5031341;28;20221;-61
2022/10/06 11:45:15;;;;;;;4.90;1.50;;;22.20;99.90;;;;;;5031794;28;20210;-61
2022/10/06 11:48:02;;;;;;;4.38;1.63;;;22.30;99.90;;;;;;5031465;28;20221;-61
2022/10/06 11:50:33;;;;;;;4.72;1.45;;;22.50;99.90;;;;;;5031610;28;20230;-60
2022/10/06 11:53:00;;;;;;;5.05;1.70;;;22.80;99.90;;;;;;5030998;28;20213;-60
2022/10/06 11:55:28;;;;;;;3.80;1.38;;;23.10;99.90;;;;;;5031711;28;20210;-60
2022/10/06 11:58:15;;;;;;;5.35;1.70;;;23.40;99.90;;;;;;5031333;28;20217;-59
2022/10/06 12:00:48;;;;;;;6.65;1.60;;;23.80;99.90;;;;;;5031245;28;20696;-60
2022/10/06 12:03:45;;;;;;;5.43;1.67;;;24.20;99.90;;;;;;5030995;28;20257;-60
2022/10/06 12:06:45;;;;;;;7.53;1.50;;;24.20;99.90;;;;;;5031669;28;20248;-59
2022/10/06 12:09:27;;;;;;;5.93;1.40;;;23.80;99.90;;;;;;5031984;28;20218;-60
2022/10/06 12:11:55;;;;;;;3.65;1.50;;;23.40;99.90;;;;;;5031495;28;20260;-60
2022/10/06 12:14:34;;;;;;;3.45;1.42;;;23.30;99.90;;;;;;5031822;28;20257;-62
2022/10/06 12:17:11;;;;;;;7.93;1.50;;;23.30;99.90;;;;;;5032070;28;20628;-60
2022/10/06 12:19:49;;;;;;;4.38;1.23;;;23.10;99.90;;;;;;5031813;28;20237;-59
2022/10/06 12:22:23;;;;;;;4.18;1.30;;;23.00;99.90;;;;;;5031160;28;20213;-60
2022/10/06 12:24:58;;;;;;;9.98;2.03;;;22.70;99.90;;;;;;5031499;28;20217;-59
2022/10/06 12:27:33;;;;;;;5.13;1.52;;;22.30;99.90;;;;;;5033028;28;20210;-60
2022/10/06 12:30:04;;;;;;;4.45;1.40;;;21.90;99.90;;;;;;5032629;28;20234;-59
2022/10/06 12:32:46;;;;;;;5.72;1.67;;;22.00;99.90;;;;;;5031244;28;20689;-60
2022/10/06 12:35:30;;;;;;;4.20;1.25;;;22.00;99.90;;;;;;5031407;28;20253;-59
2022/10/06 12:38:01;;;;;;;8.70;1.67;;;22.20;99.90;;;;;;5031379;28;20207;-59
2022/10/06 12:40:51;;;;;;;3.40;1.30;;;22.40;99.90;;;;;;5031491;28;20280;-59
2022/10/06 12:43:57;;;;;;;4.38;1.40;;;22.30;99.90;;;;;;5030742;28;20697;-60
2022/10/06 12:46:48;;;;;;;4.38;1.48;;;22.40;99.90;;;;;;5031609;28;20569;-60
2022/10/06 12:49:33;;;;;;;6.85;1.63;;;22.50;99.90;;;;;;5033297;28;20229;-61
2022/10/06 12:52:08;;;;;;;4.72;1.40;;;22.70;99.90;;;;;;5034145;28;20263;-61
2022/10/06 12:54:42;;;;;;;5.45;1.58;;;22.80;99.90;;;;;;5034757;28;20557;-60
2022/10/06 12:57:17;;;;;;;7.88;1.60;;;22.70;99.90;;;;;;5034731;28;20214;-61
2022/10/06 12:59:44;;;;;;;4.38;1.48;;;22.60;99.90;;;;;;5034456;28;20588;-61
2022/10/06 13:02:19;;;;;;;8.05;5.18;;;22.60;99.90;;;;;;5034077;28;20233;-61
2022/10/06 13:04:51;;;;;;;4.55;2.03;;;22.70;99.90;;;;;;5034588;28;20213;-61
2022/10/06 13:07:20;;;;;;;5.00;1.40;;;22.90;99.90;;;;;;5034544;28;20206;-61
2022/10/06 13:09:50;;;;;;;5.53;1.27;;;23.00;99.90;;;;;;5034789;28;20219;-60
2022/10/06 13:12:26;;;;;;;4.55;1.58;;;23.20;99.90;;;;;;5033982;28;20218;-61
2022/10/06 13:15:26;;;;;;;4.07;1.50;;;23.10;99.90;;;;;;5034322;28;20626;-60
2022/10/06 13:17:55;;;;;;;4.57;1.42;;;23.10;99.90;;;;;;4954047;29;20223;-61